createdAt,value
2022-10-18T00:01:16.206Z,100.00
2022-10-18T00:03:44.857Z,100.00
2022-10-18T00:06:13.534Z,100.00
2022-10-18T00:08:43.481Z,100.00
2022-10-18T00:11:12.236Z,100.00
2022-10-18T00:13:40.860Z,100.00
2022-10-18T00:16:12.686Z,100.00
2022-10-18T00:18:41.451Z,100.00
2022-10-18T00:21:12.493Z,100.00
2022-10-18T00:23:42.823Z,100.00
2022-10-18T00:26:13.433Z,100.00
2022-10-18T00:28:42.850Z,100.00
2022-10-18T00:31:16.349Z,100.00
2022-10-18T00:33:46.067Z,100.00
2022-10-18T00:36:15.095Z,100.00
2022-10-18T00:38:45.606Z,100.00
2022-10-18T00:41:16.008Z,100.00
2022-10-18T00:43:59.914Z,100.00
2022-10-18T00:46:30.492Z,100.00
2022-10-18T00:49:01.426Z,100.00
2022-10-18T00:51:32.271Z,100.00
2022-10-18T00:54:02.310Z,100.00
2022-10-18T00:56:31.253Z,100.00
2022-10-18T00:59:00.130Z,100.00
2022-10-18T01:01:28.903Z,100.00
2022-10-18T01:03:58.486Z,100.00
2022-10-18T01:06:28.206Z,100.00
2022-10-18T01:09:11.322Z,100.00
2022-10-18T01:11:56.101Z,100.00
2022-10-18T01:14:34.974Z,100.00
2022-10-18T01:17:13.174Z,100.00
2022-10-18T01:20:18.512Z,100.00
2022-10-18T01:22:51.491Z,100.00
2022-10-18T01:25:35.558Z,100.00
2022-10-18T01:28:11.041Z,100.00
2022-10-18T01:30:47.837Z,100.00
2022-10-18T01:33:27.088Z,100.00
2022-10-18T01:36:00.239Z,100.00
2022-10-18T01:38:31.314Z,100.00
2022-10-18T01:41:01.554Z,100.00
2022-10-18T01:43:30.778Z,100.00
2022-10-18T01:46:01.500Z,100.00
2022-10-18T01:48:30.749Z,99.87
2022-10-18T01:50:59.381Z,99.67
2022-10-18T01:53:31.202Z,100.00
2022-10-18T01:56:15.449Z,100.00
2022-10-18T01:58:49.968Z,100.00
2022-10-18T02:01:28.358Z,100.00
2022-10-18T02:04:00.389Z,100.00
2022-10-18T02:06:32.928Z,100.00
2022-10-18T02:09:05.439Z,100.00
2022-10-18T02:11:35.048Z,100.00
2022-10-18T02:14:07.886Z,100.00
2022-10-18T02:16:40.440Z,99.34
2022-10-18T02:19:11.883Z,99.34
2022-10-18T02:21:42.284Z,99.86
2022-10-18T02:24:12.088Z,100.00
2022-10-18T02:26:41.431Z,100.00
2022-10-18T02:29:10.097Z,100.00
2022-10-18T02:31:45.025Z,99.22
2022-10-18T02:34:19.207Z,99.71
2022-10-18T02:36:49.504Z,100.00
2022-10-18T02:39:20.659Z,100.00
2022-10-18T02:41:49.498Z,100.00
2022-10-18T02:44:18.490Z,100.00
2022-10-18T02:46:48.673Z,100.00
2022-10-18T02:49:17.504Z,100.00
2022-10-18T02:51:46.110Z,99.47
2022-10-18T02:54:14.683Z,99.17
2022-10-18T02:56:43.262Z,100.00
2022-10-18T02:59:12.128Z,100.00
2022-10-18T03:01:40.829Z,99.93
2022-10-18T03:04:10.910Z,99.65
2022-10-18T03:06:39.637Z,99.10
2022-10-18T03:09:08.353Z,98.99
2022-10-18T03:11:36.960Z,98.10
2022-10-18T03:14:05.569Z,97.74
2022-10-18T03:16:34.939Z,97.44
2022-10-18T03:19:03.710Z,97.44
2022-10-18T03:21:33.689Z,98.08
2022-10-18T03:24:02.987Z,97.80
2022-10-18T03:26:31.612Z,97.79
2022-10-18T03:29:00.311Z,98.07
2022-10-18T03:34:02.626Z,97.65
2022-10-18T03:36:31.211Z,97.70
2022-10-18T03:39:01.199Z,97.34
2022-10-18T03:41:29.880Z,97.47
2022-10-18T03:43:58.469Z,97.13
2022-10-18T03:46:27.077Z,97.29
2022-10-18T03:48:55.695Z,97.48
2022-10-18T03:51:24.294Z,97.77
2022-10-18T03:53:52.922Z,97.76
2022-10-18T03:56:22.918Z,98.51
2022-10-18T03:58:51.614Z,97.94
2022-10-18T04:01:20.284Z,98.27
2022-10-18T04:03:48.914Z,98.05
2022-10-18T04:06:17.533Z,96.75
2022-10-18T04:08:46.119Z,97.65
2022-10-18T04:11:15.005Z,98.69
2022-10-18T04:13:45.186Z,99.38
2022-10-18T04:16:13.807Z,98.24
2022-10-18T04:18:42.494Z,97.75
2022-10-18T04:21:11.131Z,98.31
2022-10-18T04:23:39.807Z,98.34
2022-10-18T04:26:08.778Z,98.42
2022-10-18T04:28:40.068Z,98.47
2022-10-18T04:31:10.593Z,98.48
2022-10-18T04:33:39.474Z,98.73
2022-10-18T04:36:08.533Z,98.97
2022-10-18T04:38:37.168Z,97.20
2022-10-18T04:41:05.957Z,97.20
2022-10-18T04:43:34.613Z,96.77
2022-10-18T04:46:03.316Z,97.07
2022-10-18T04:48:33.289Z,96.70
2022-10-18T04:51:01.995Z,97.13
2022-10-18T04:53:30.612Z,97.15
2022-10-18T04:55:59.253Z,96.97
2022-10-18T04:58:28.204Z,97.54
2022-10-18T05:00:56.866Z,97.46
2022-10-18T05:03:25.507Z,97.76
2022-10-18T05:06:03.537Z,97.72
2022-10-18T05:08:33.273Z,97.20
2022-10-18T05:11:02.802Z,96.80
2022-10-18T05:13:32.010Z,96.75
2022-10-18T05:16:00.753Z,97.12
2022-10-18T05:18:29.708Z,96.89
2022-10-18T05:20:59.737Z,97.00
2022-10-18T05:23:28.550Z,96.75
2022-10-18T05:26:02.846Z,96.20
2022-10-18T05:28:39.665Z,96.90
2022-10-18T05:31:10.710Z,100.00
2022-10-18T05:33:39.755Z,98.29
2022-10-18T05:36:10.733Z,94.87
2022-10-18T05:38:41.971Z,95.39
2022-10-18T05:41:11.419Z,94.44
2022-10-18T05:43:40.718Z,94.11
2022-10-18T05:46:14.621Z,94.73
2022-10-18T05:48:44.936Z,94.69
2022-10-18T05:51:14.961Z,95.09
2022-10-18T05:53:43.907Z,95.31
2022-10-18T05:56:12.773Z,96.72
2022-10-18T05:58:41.665Z,96.79
2022-10-18T06:01:11.105Z,97.13
2022-10-18T06:03:39.724Z,97.40
2022-10-18T06:06:09.935Z,96.62
2022-10-18T06:08:40.955Z,96.63
2022-10-18T06:11:10.914Z,96.98
2022-10-18T06:13:43.029Z,96.14
2022-10-18T06:16:12.429Z,96.88
2022-10-18T06:18:41.487Z,97.24
2022-10-18T06:21:10.818Z,97.22
2022-10-18T06:23:42.047Z,97.17
2022-10-18T06:26:12.186Z,97.34
2022-10-18T06:28:40.941Z,97.31
2022-10-18T06:31:11.026Z,97.23
2022-10-18T06:33:39.857Z,97.71
2022-10-18T06:36:11.549Z,97.94
2022-10-18T06:38:40.209Z,97.67
2022-10-18T06:41:10.295Z,97.15
2022-10-18T06:43:38.938Z,96.87
2022-10-18T06:46:08.259Z,96.67
2022-10-18T06:48:37.770Z,96.56
2022-10-18T06:51:07.578Z,95.73
2022-10-18T06:53:44.146Z,95.02
2022-10-18T06:56:18.841Z,94.90
2022-10-18T06:58:47.566Z,94.07
2022-10-18T07:01:17.931Z,94.06
2022-10-18T07:03:48.117Z,93.96
2022-10-18T07:06:18.504Z,93.81
2022-10-18T07:08:47.596Z,93.95
2022-10-18T07:11:19.141Z,93.02
2022-10-18T07:13:48.043Z,93.79
2022-10-18T07:16:19.298Z,93.26
2022-10-18T07:18:49.661Z,93.87
2022-10-18T07:21:21.005Z,93.45
2022-10-18T07:23:49.949Z,92.50
2022-10-18T07:26:22.415Z,92.23
2022-10-18T07:28:54.153Z,91.36
2022-10-18T07:31:23.549Z,91.30
2022-10-18T07:33:52.526Z,91.99
2022-10-18T07:36:22.256Z,90.97
2022-10-18T07:38:51.889Z,90.27
2022-10-18T07:41:22.795Z,90.64
2022-10-18T07:43:52.718Z,90.26
2022-10-18T07:46:22.789Z,90.31
2022-10-18T07:48:51.995Z,90.30
2022-10-18T07:51:21.435Z,91.61
2022-10-18T07:53:50.101Z,91.52
2022-10-18T07:56:22.013Z,91.18
2022-10-18T07:58:52.466Z,91.51
2022-10-18T08:01:21.845Z,90.84
2022-10-18T08:03:51.171Z,91.31
2022-10-18T08:06:21.272Z,90.19
2022-10-18T08:08:50.291Z,88.09
2022-10-18T08:11:22.761Z,88.28
2022-10-18T08:13:51.863Z,87.59
2022-10-18T08:16:24.185Z,87.73
2022-10-18T08:18:53.301Z,87.38
2022-10-18T08:21:22.571Z,88.02
2022-10-18T08:23:51.542Z,87.74
2022-10-18T08:26:23.309Z,87.18
2022-10-18T08:29:10.423Z,86.77
2022-10-18T08:31:40.786Z,86.55
2022-10-18T08:34:09.427Z,86.04
2022-10-18T08:36:38.545Z,85.64
2022-10-18T08:39:07.293Z,85.40
2022-10-18T08:41:49.780Z,86.74
2022-10-18T08:44:20.767Z,86.58
2022-10-18T08:46:50.951Z,85.15
2022-10-18T08:49:26.529Z,84.79
2022-10-18T08:51:55.873Z,86.14
2022-10-18T08:54:31.355Z,85.60
2022-10-18T08:57:02.875Z,86.37
2022-10-18T08:59:37.940Z,86.25
2022-10-18T09:02:17.831Z,84.92
2022-10-18T09:04:50.631Z,82.34
2022-10-18T09:07:45.114Z,83.04
2022-10-18T09:10:20.843Z,84.08
2022-10-18T09:13:03.823Z,86.35
2022-10-18T09:15:40.634Z,84.04
2022-10-18T09:18:18.469Z,83.71
2022-10-18T09:20:52.103Z,82.27
2022-10-18T09:23:23.160Z,82.14
2022-10-18T09:25:54.973Z,81.53
2022-10-18T09:28:33.714Z,81.01
2022-10-18T09:31:07.570Z,81.16
2022-10-18T09:33:41.832Z,81.52
2022-10-18T09:36:12.587Z,81.49
2022-10-18T09:38:45.646Z,81.70
2022-10-18T09:41:17.947Z,81.38
2022-10-18T09:43:58.270Z,80.16
2022-10-18T09:46:31.039Z,80.37
2022-10-18T09:49:02.267Z,80.16
2022-10-18T09:51:35.299Z,80.47
2022-10-18T09:54:11.641Z,80.83
2022-10-18T09:56:43.583Z,79.65
2022-10-18T09:59:39.903Z,80.29
2022-10-18T10:02:13.795Z,79.48
2022-10-18T10:04:42.555Z,79.13
2022-10-18T10:07:15.326Z,78.59
2022-10-18T10:09:47.101Z,79.31
2022-10-18T10:12:30.072Z,80.24
2022-10-18T10:15:10.672Z,79.35
2022-10-18T10:17:39.435Z,78.27
2022-10-18T10:20:16.818Z,79.08
2022-10-18T10:22:47.627Z,76.29
2022-10-18T10:25:24.831Z,77.03
2022-10-18T10:27:54.021Z,75.31
2022-10-18T10:30:26.881Z,74.96
2022-10-18T10:32:56.785Z,74.61
2022-10-18T10:35:52.467Z,74.30
2022-10-18T10:38:27.343Z,72.90
2022-10-18T10:40:56.732Z,72.23
2022-10-18T10:43:42.544Z,72.01
2022-10-18T10:46:14.284Z,70.97
2022-10-18T10:48:52.168Z,69.87
2022-10-18T10:51:30.774Z,70.20
2022-10-18T10:54:02.134Z,69.05
2022-10-18T10:56:32.497Z,69.72
2022-10-18T10:59:09.735Z,67.77
2022-10-18T11:01:39.928Z,67.94
2022-10-18T11:04:27.386Z,66.77
2022-10-18T11:07:05.185Z,67.63
2022-10-18T11:09:51.196Z,65.86
2022-10-18T11:12:25.242Z,65.12
2022-10-18T11:15:12.610Z,66.12
2022-10-18T11:17:44.253Z,67.47
2022-10-18T11:20:20.477Z,68.23
2022-10-18T11:22:59.801Z,67.64
2022-10-18T11:25:40.875Z,67.05
2022-10-18T11:28:14.919Z,65.87
2022-10-18T11:30:53.370Z,69.22
2022-10-18T11:33:56.483Z,67.40
2022-10-18T11:36:26.058Z,66.21
2022-10-18T11:38:57.656Z,67.35
2022-10-18T11:41:33.047Z,67.19
2022-10-18T11:44:04.132Z,67.04
2022-10-18T11:46:42.114Z,64.93
2022-10-18T11:49:20.562Z,63.81
2022-10-18T11:52:08.423Z,66.42
2022-10-18T11:54:53.340Z,67.81
2022-10-18T11:57:42.355Z,66.52
2022-10-18T12:00:29.983Z,67.33
2022-10-18T12:03:09.587Z,67.77
2022-10-18T12:05:40.843Z,67.32
2022-10-18T12:08:13.586Z,67.72
2022-10-18T12:10:53.027Z,67.85
2022-10-18T12:13:37.365Z,67.80
2022-10-18T12:16:08.496Z,68.26
2022-10-18T12:18:37.841Z,68.03
2022-10-18T12:21:08.053Z,68.13
2022-10-18T12:23:41.316Z,68.91
2022-10-18T12:26:14.990Z,68.58
2022-10-18T12:28:50.665Z,68.34
2022-10-18T12:31:23.620Z,67.18
2022-10-18T12:33:55.643Z,66.48
2022-10-18T12:36:42.697Z,66.82
2022-10-18T12:39:14.210Z,67.70
2022-10-18T12:41:42.942Z,68.35
2022-10-18T12:44:20.291Z,69.39
2022-10-18T12:46:50.748Z,68.31
2022-10-18T12:49:23.071Z,68.63
2022-10-18T12:51:55.252Z,68.81
2022-10-18T12:54:27.923Z,65.26
2022-10-18T12:56:57.326Z,65.66
2022-10-18T12:59:49.898Z,65.70
2022-10-18T13:02:36.492Z,64.18
2022-10-18T13:05:48.865Z,64.28
2022-10-18T13:08:39.372Z,64.96
2022-10-18T13:11:30.921Z,64.91
2022-10-18T13:15:05.878Z,65.44
2022-10-18T13:17:42.836Z,65.68
2022-10-18T13:20:25.942Z,66.62
2022-10-18T13:23:04.010Z,67.90
2022-10-18T13:25:37.742Z,67.29
2022-10-18T13:28:19.054Z,67.72
2022-10-18T13:30:52.591Z,67.94
2022-10-18T13:33:33.239Z,67.92
2022-10-18T13:36:03.123Z,68.59
2022-10-18T13:38:51.625Z,69.29
2022-10-18T13:44:28.330Z,68.52
2022-10-18T13:47:12.274Z,68.42
2022-10-18T13:49:57.144Z,67.81
2022-10-18T13:52:36.729Z,67.59
2022-10-18T13:55:21.910Z,67.47
2022-10-18T13:58:01.154Z,67.10
2022-10-18T14:00:44.859Z,67.55
2022-10-18T14:03:57.734Z,67.58
2022-10-18T14:06:28.567Z,67.44
2022-10-18T14:09:09.505Z,67.37
2022-10-18T14:11:51.073Z,67.69
2022-10-18T14:14:26.377Z,68.03
2022-10-18T14:16:59.811Z,68.78
2022-10-18T14:19:31.561Z,69.11
2022-10-18T14:22:07.879Z,69.41
2022-10-18T14:24:36.967Z,70.07
2022-10-18T14:27:13.857Z,71.16
2022-10-18T14:29:44.409Z,71.94
2022-10-18T14:32:24.264Z,72.40
2022-10-18T14:34:55.764Z,72.82
2022-10-18T14:37:33.147Z,73.40
2022-10-18T14:40:02.623Z,73.68
2022-10-18T14:42:31.519Z,73.37
2022-10-18T14:45:01.671Z,73.27
2022-10-18T14:47:33.689Z,73.83
2022-10-18T14:50:02.947Z,73.94
2022-10-18T14:52:35.519Z,74.36
2022-10-18T14:55:05.106Z,74.38
2022-10-18T14:57:36.311Z,75.05
2022-10-18T15:00:09.635Z,75.08
2022-10-18T15:02:39.226Z,74.94
2022-10-18T15:05:10.488Z,75.42
2022-10-18T15:07:39.866Z,75.46
2022-10-18T15:10:11.695Z,76.36
2022-10-18T15:13:04.896Z,76.80
2022-10-18T15:15:34.450Z,76.77
2022-10-18T15:18:05.124Z,76.65
2022-10-18T15:20:39.320Z,76.55
2022-10-18T15:23:23.169Z,75.84
2022-10-18T15:25:52.541Z,76.02
2022-10-18T15:28:26.799Z,76.77
2022-10-18T15:30:58.689Z,76.80
2022-10-18T15:33:33.607Z,76.95
2022-10-18T15:36:12.387Z,77.38
2022-10-18T15:38:41.030Z,77.25
2022-10-18T15:41:41.067Z,77.57
2022-10-18T15:44:19.715Z,76.62
2022-10-18T15:46:52.934Z,77.00
2022-10-18T15:50:00.267Z,77.17
2022-10-18T15:52:40.624Z,77.25
2022-10-18T15:55:42.751Z,77.71
2022-10-18T15:58:16.444Z,77.91
2022-10-18T16:00:45.976Z,78.06
2022-10-18T16:03:16.922Z,78.82
2022-10-18T16:05:45.750Z,80.34
2022-10-18T16:08:20.314Z,80.18
2022-10-18T16:10:49.486Z,82.48
2022-10-18T16:13:18.893Z,80.96
2022-10-18T16:15:47.738Z,80.22
2022-10-18T16:18:20.134Z,81.07
2022-10-18T16:20:49.199Z,80.01
2022-10-18T16:23:20.794Z,80.17
2022-10-18T16:25:50.163Z,80.79
2022-10-18T16:28:20.097Z,80.30
2022-10-18T16:30:55.056Z,80.20
2022-10-18T16:33:26.057Z,80.96
2022-10-18T16:35:55.500Z,80.62
2022-10-18T16:38:34.039Z,80.41
2022-10-18T16:41:04.927Z,80.63
2022-10-18T16:43:34.645Z,80.70
2022-10-18T16:46:04.783Z,80.62
2022-10-18T16:48:34.817Z,80.44
2022-10-18T16:51:03.471Z,80.94
2022-10-18T16:53:32.274Z,81.23
2022-10-18T16:56:02.751Z,81.54
2022-10-18T16:58:32.984Z,81.46
2022-10-18T17:01:04.053Z,81.54
2022-10-18T17:03:36.903Z,80.93
2022-10-18T17:06:05.938Z,81.88
2022-10-18T17:08:34.680Z,81.10
2022-10-18T17:11:03.437Z,80.75
2022-10-18T17:13:32.126Z,80.46
2022-10-18T17:16:03.296Z,80.82
2022-10-18T17:18:32.451Z,80.47
2022-10-18T17:21:03.206Z,80.90
2022-10-18T17:23:32.127Z,80.44
2022-10-18T17:26:06.683Z,80.86
2022-10-18T17:28:38.992Z,80.98
2022-10-18T17:31:08.418Z,80.96
2022-10-18T17:33:38.213Z,80.86
2022-10-18T17:36:08.632Z,80.56
2022-10-18T17:38:37.666Z,80.30
2022-10-18T17:41:10.217Z,80.49
2022-10-18T17:46:09.169Z,80.99
2022-10-18T17:48:37.912Z,81.45
2022-10-18T17:51:12.312Z,81.64
2022-10-18T17:53:41.123Z,82.19
2022-10-18T17:56:11.313Z,82.27
2022-10-18T17:58:40.277Z,82.56
2022-10-18T18:01:10.456Z,82.21
2022-10-18T18:03:39.166Z,82.36
2022-10-18T18:06:17.251Z,82.03
2022-10-18T18:08:46.334Z,82.84
2022-10-18T18:11:15.260Z,83.11
2022-10-18T18:13:44.386Z,82.83
2022-10-18T18:16:14.938Z,83.68
2022-10-18T18:18:44.326Z,84.01
2022-10-18T18:21:13.609Z,84.69
2022-10-18T18:23:43.882Z,85.33
2022-10-18T18:26:12.583Z,85.01
2022-10-18T18:28:41.540Z,85.21
2022-10-18T18:31:12.542Z,85.42
2022-10-18T18:33:42.994Z,85.53
2022-10-18T18:36:12.331Z,86.01
2022-10-18T18:38:43.427Z,86.01
2022-10-18T18:41:14.590Z,86.44
2022-10-18T18:43:45.060Z,87.26
2022-10-18T18:46:14.384Z,87.98
2022-10-18T18:48:43.138Z,87.76
2022-10-18T18:51:14.614Z,87.40
2022-10-18T18:53:46.411Z,88.38
2022-10-18T18:56:16.962Z,88.98
2022-10-18T18:58:46.571Z,88.65
2022-10-18T19:01:18.174Z,88.45
2022-10-18T19:03:49.165Z,88.57
2022-10-18T19:06:19.243Z,88.82
2022-10-18T19:08:49.987Z,89.37
2022-10-18T19:11:20.639Z,89.73
2022-10-18T19:13:50.411Z,89.75
2022-10-18T19:16:22.189Z,90.03
2022-10-18T19:18:58.556Z,90.25
2022-10-18T19:21:29.266Z,90.48
2022-10-18T19:24:00.159Z,90.88
2022-10-18T19:26:32.325Z,90.95
2022-10-18T19:29:02.926Z,91.04
2022-10-18T19:31:31.674Z,91.57
2022-10-18T19:34:00.400Z,92.19
2022-10-18T19:36:29.917Z,92.44
2022-10-18T19:39:00.012Z,92.88
2022-10-18T19:41:29.367Z,93.04
2022-10-18T19:43:58.460Z,93.01
2022-10-18T19:46:28.567Z,93.44
2022-10-18T19:48:57.585Z,94.01
2022-10-18T19:51:28.308Z,94.41
2022-10-18T19:53:58.134Z,94.95
2022-10-18T19:56:29.436Z,94.81
2022-10-18T19:58:58.578Z,95.21
2022-10-18T20:01:27.825Z,95.58
2022-10-18T20:03:56.948Z,95.40
2022-10-18T20:06:25.773Z,95.73
2022-10-18T20:08:55.633Z,95.99
2022-10-18T20:11:25.828Z,96.23
2022-10-18T20:13:56.357Z,96.02
2022-10-18T20:16:28.380Z,96.10
2022-10-18T20:18:58.196Z,96.20
2022-10-18T20:21:28.256Z,96.94
2022-10-18T20:23:57.313Z,97.04
2022-10-18T20:26:26.575Z,97.12
2022-10-18T20:28:58.584Z,97.44
2022-10-18T20:31:29.393Z,97.21
2022-10-18T20:33:59.577Z,97.10
2022-10-18T20:36:30.342Z,97.17
2022-10-18T20:38:59.093Z,97.06
2022-10-18T20:41:29.057Z,97.10
2022-10-18T20:44:00.495Z,97.73
2022-10-18T20:46:31.868Z,97.99
2022-10-18T20:49:01.056Z,97.78
2022-10-18T20:51:30.012Z,98.31
2022-10-18T20:53:58.906Z,98.35
2022-10-18T20:56:27.878Z,98.33
2022-10-18T20:58:58.881Z,97.96
2022-10-18T21:01:29.668Z,98.66
2022-10-18T21:04:01.272Z,98.48
2022-10-18T21:06:31.593Z,98.18
2022-10-18T21:09:02.160Z,98.46
2022-10-18T21:11:31.919Z,98.84
2022-10-18T21:14:03.184Z,98.65
2022-10-18T21:16:32.868Z,98.75
2022-10-18T21:19:03.954Z,98.73
2022-10-18T21:21:32.969Z,98.92
2022-10-18T21:24:05.319Z,98.77
2022-10-18T21:26:37.000Z,99.25
2022-10-18T21:29:07.630Z,99.59
2022-10-18T21:31:39.010Z,100.00
2022-10-18T21:34:09.909Z,100.00
2022-10-18T21:36:38.718Z,100.00
2022-10-18T21:39:09.530Z,100.00
2022-10-18T21:41:38.749Z,100.00
2022-10-18T21:44:11.327Z,99.72
2022-10-18T21:46:40.297Z,99.51
2022-10-18T21:49:09.067Z,99.91
2022-10-18T21:51:38.052Z,100.00
2022-10-18T21:54:08.692Z,100.00
2022-10-18T21:56:37.549Z,100.00
2022-10-18T21:59:06.744Z,100.00
2022-10-18T22:01:38.245Z,100.00
2022-10-18T22:04:08.453Z,100.00
2022-10-18T22:06:37.538Z,100.00
2022-10-18T22:09:08.919Z,100.00
2022-10-18T22:11:40.091Z,100.00
2022-10-18T22:14:08.787Z,100.00
2022-10-18T22:16:38.995Z,100.00
2022-10-18T22:19:08.007Z,100.00
2022-10-18T22:21:36.829Z,100.00
2022-10-18T22:24:07.386Z,100.00
2022-10-18T22:26:37.883Z,100.00
2022-10-18T22:29:08.632Z,100.00
2022-10-18T22:31:41.131Z,100.00
2022-10-18T22:34:12.145Z,100.00
2022-10-18T22:36:41.233Z,100.00
2022-10-18T22:39:10.590Z,100.00
2022-10-18T22:41:39.262Z,100.00
2022-10-18T22:44:08.380Z,100.00
2022-10-18T22:46:38.554Z,100.00
2022-10-18T22:49:07.290Z,100.00
2022-10-18T22:54:05.010Z,100.00
2022-10-18T22:56:33.617Z,100.00
2022-10-18T22:59:02.192Z,100.00
2022-10-18T23:01:30.866Z,100.00
2022-10-18T23:04:01.375Z,100.00
2022-10-18T23:06:31.227Z,100.00
2022-10-18T23:09:02.101Z,100.00
2022-10-18T23:11:30.713Z,100.00
2022-10-18T23:13:59.316Z,100.00
2022-10-18T23:16:29.412Z,100.00
2022-10-18T23:19:00.556Z,100.00
2022-10-18T23:21:29.752Z,100.00
2022-10-18T23:23:58.509Z,100.00
2022-10-18T23:26:28.561Z,100.00
2022-10-18T23:28:57.523Z,100.00
2022-10-18T23:31:27.535Z,100.00
2022-10-18T23:33:57.378Z,100.00
2022-10-18T23:36:28.741Z,100.00
2022-10-18T23:38:57.752Z,100.00
2022-10-18T23:41:26.760Z,100.00
2022-10-18T23:43:55.723Z,100.00
2022-10-18T23:46:24.642Z,100.00
2022-10-18T23:48:53.287Z,100.00
2022-10-18T23:51:21.912Z,100.00
2022-10-18T23:53:51.861Z,100.00
2022-10-18T23:56:20.500Z,100.00
2022-10-18T23:58:49.120Z,100.00
